Terminal Aerodrome Forecast
Issued by NWS

Home | Current Version | Previous Version | Graphics & Text | Print | Product List | Glossary On
Versions: 1 2 3 4 5 6 7 8 9 10 11 12 13 14 15 16 17 18
000
FTUS43 KGRB 031300 AAA
TAFAUW
TAF AMD
KAUW 031346Z 0314/0412 16007KT 1 1/2SM -SN BR OVC008
      TEMPO 0314/0317 3/4SM -SN BR BKN004
     FM031900 26010KT P6SM -SN SCT009 OVC025
     FM040000 29011KT P6SM SCT020 BKN100
     FM040200 30012G20KT P6SM SCT100=

USA.gov is the U.S. government's official web portal to all federal, state and local government web resources and services.